臺中航空站 - ATIS

METAR RCMQ 140300Z 30006KT 9999 FEW012 BKN025 30/26 Q1009 NOSIG RMK A2980=

站台狀態:Online
最後更新:2022-08-14 11:00:02